sensor_id;sensor_type;location;lat;lon;timestamp;pressure;altitude;pressure_sealevel;temperature;humidity
67517;BME280;54359;59.124;37.910;2023-01-08T00:01:10;101049.00;;;-13.07;81.22
67517;BME280;54359;59.124;37.910;2023-01-08T00:03:37;101050.78;;;-13.06;81.46
67517;BME280;54359;59.124;37.910;2023-01-08T00:06:05;101045.66;;;-13.07;81.30
67517;BME280;54359;59.124;37.910;2023-01-08T00:08:32;101052.94;;;-13.02;81.27
67517;BME280;54359;59.124;37.910;2023-01-08T00:10:58;101057.16;;;-13.01;80.73
67517;BME280;54359;59.124;37.910;2023-01-08T00:13:24;101053.94;;;-13.07;80.48
67517;BME280;54359;59.124;37.910;2023-01-08T00:15:51;101062.09;;;-13.01;80.31
67517;BME280;54359;59.124;37.910;2023-01-08T00:18:17;101055.91;;;-13.04;80.17
67517;BME280;54359;59.124;37.910;2023-01-08T00:20:44;101055.53;;;-13.07;81.14
67517;BME280;54359;59.124;37.910;2023-01-08T00:23:15;101062.97;;;-13.07;80.42
67517;BME280;54359;59.124;37.910;2023-01-08T00:25:41;101063.34;;;-13.04;80.74
67517;BME280;54359;59.124;37.910;2023-01-08T00:28:07;101060.47;;;-13.14;80.04
67517;BME280;54359;59.124;37.910;2023-01-08T00:30:34;101062.34;;;-13.19;80.07
67517;BME280;54359;59.124;37.910;2023-01-08T00:33:00;101054.03;;;-13.27;80.66
67517;BME280;54359;59.124;37.910;2023-01-08T00:35:26;101068.34;;;-13.24;80.70
67517;BME280;54359;59.124;37.910;2023-01-08T00:37:52;101057.03;;;-13.29;80.36
67517;BME280;54359;59.124;37.910;2023-01-08T00:40:18;101065.38;;;-13.29;79.91
67517;BME280;54359;59.124;37.910;2023-01-08T00:42:46;101052.59;;;-13.39;80.45
67517;BME280;54359;59.124;37.910;2023-01-08T00:45:12;101066.94;;;-13.29;80.90
67517;BME280;54359;59.124;37.910;2023-01-08T00:47:38;101067.97;;;-13.27;80.16
67517;BME280;54359;59.124;37.910;2023-01-08T00:50:04;101073.63;;;-13.28;81.32
67517;BME280;54359;59.124;37.910;2023-01-08T00:52:31;101071.72;;;-13.31;80.10
67517;BME280;54359;59.124;37.910;2023-01-08T00:54:56;101066.69;;;-13.45;80.46
67517;BME280;54359;59.124;37.910;2023-01-08T00:57:22;101072.69;;;-13.43;80.99
67517;BME280;54359;59.124;37.910;2023-01-08T00:59:48;101076.69;;;-13.51;80.26
67517;BME280;54359;59.124;37.910;2023-01-08T01:02:14;101063.94;;;-13.54;80.18
67517;BME280;54359;59.124;37.910;2023-01-08T01:04:40;101069.59;;;-13.55;80.22
67517;BME280;54359;59.124;37.910;2023-01-08T01:07:06;101073.47;;;-13.57;80.87
67517;BME280;54359;59.124;37.910;2023-01-08T01:09:32;101076.50;;;-13.52;80.26
67517;BME280;54359;59.124;37.910;2023-01-08T01:12:03;101067.13;;;-13.55;81.03
67517;BME280;54359;59.124;37.910;2023-01-08T01:14:29;101074.78;;;-13.46;81.20
67517;BME280;54359;59.124;37.910;2023-01-08T01:16:55;101063.88;;;-13.41;80.82
67517;BME280;54359;59.124;37.910;2023-01-08T01:19:21;101081.34;;;-13.40;80.98
67517;BME280;54359;59.124;37.910;2023-01-08T01:21:49;101072.16;;;-13.41;80.72
67517;BME280;54359;59.124;37.910;2023-01-08T01:24:15;101088.31;;;-13.30;81.06
67517;BME280;54359;59.124;37.910;2023-01-08T01:26:41;101080.22;;;-13.29;81.48
67517;BME280;54359;59.124;37.910;2023-01-08T01:29:07;101080.34;;;-13.27;81.01
67517;BME280;54359;59.124;37.910;2023-01-08T01:31:33;101076.97;;;-13.28;80.24
67517;BME280;54359;59.124;37.910;2023-01-08T01:33:59;101073.63;;;-13.28;80.51
67517;BME280;54359;59.124;37.910;2023-01-08T01:36:26;101092.22;;;-13.25;81.00
67517;BME280;54359;59.124;37.910;2023-01-08T01:38:54;101092.69;;;-13.27;80.15
67517;BME280;54359;59.124;37.910;2023-01-08T01:41:31;101089.72;;;-13.32;80.74
67517;BME280;54359;59.124;37.910;2023-01-08T01:49:42;101107.78;;;-13.46;79.95
67517;BME280;54359;59.124;37.910;2023-01-08T01:52:11;101104.97;;;-13.49;81.21
67517;BME280;54359;59.124;37.910;2023-01-08T01:54:37;101102.69;;;-13.47;81.12
67517;BME280;54359;59.124;37.910;2023-01-08T01:57:04;101095.19;;;-13.54;80.61
67517;BME280;54359;59.124;37.910;2023-01-08T01:59:32;101098.88;;;-13.58;80.11
67517;BME280;54359;59.124;37.910;2023-01-08T02:01:58;101108.28;;;-13.55;81.17
67517;BME280;54359;59.124;37.910;2023-01-08T02:04:24;101097.88;;;-13.53;79.65
67517;BME280;54359;59.124;37.910;2023-01-08T02:07:15;101099.25;;;-13.55;80.47
67517;BME280;54359;59.124;37.910;2023-01-08T02:09:52;101105.22;;;-13.60;80.42
67517;BME280;54359;59.124;37.910;2023-01-08T02:12:31;101101.31;;;-13.65;80.70
67517;BME280;54359;59.124;37.910;2023-01-08T02:20:34;101103.78;;;-13.85;80.57
67517;BME280;54359;59.124;37.910;2023-01-08T02:26:15;101113.09;;;-13.90;79.42
67517;BME280;54359;59.124;37.910;2023-01-08T02:31:13;101114.69;;;-13.90;80.87
67517;BME280;54359;59.124;37.910;2023-01-08T02:33:40;101106.88;;;-13.93;80.59
67517;BME280;54359;59.124;37.910;2023-01-08T02:36:29;101118.91;;;-13.89;81.29
67517;BME280;54359;59.124;37.910;2023-01-08T02:42:23;101118.03;;;-13.90;81.24
67517;BME280;54359;59.124;37.910;2023-01-08T02:45:30;101120.09;;;-13.93;81.49
67517;BME280;54359;59.124;37.910;2023-01-08T02:48:17;101120.25;;;-13.99;80.89
67517;BME280;54359;59.124;37.910;2023-01-08T02:50:58;101128.34;;;-14.00;80.58
67517;BME280;54359;59.124;37.910;2023-01-08T02:53:58;101132.59;;;-13.99;81.40
67517;BME280;54359;59.124;37.910;2023-01-08T02:56:31;101123.03;;;-14.03;80.09
67517;BME280;54359;59.124;37.910;2023-01-08T02:58:59;101131.13;;;-14.04;80.64
67517;BME280;54359;59.124;37.910;2023-01-08T03:01:27;101136.06;;;-14.04;80.10
67517;BME280;54359;59.124;37.910;2023-01-08T03:03:58;101121.50;;;-14.15;80.37
67517;BME280;54359;59.124;37.910;2023-01-08T03:06:25;101141.72;;;-14.05;81.23
67517;BME280;54359;59.124;37.910;2023-01-08T03:08:53;101136.06;;;-14.04;80.59
67517;BME280;54359;59.124;37.910;2023-01-08T03:11:22;101134.63;;;-14.09;80.79
67517;BME280;54359;59.124;37.910;2023-01-08T03:14:14;101144.66;;;-14.07;80.97
67517;BME280;54359;59.124;37.910;2023-01-08T03:19:31;101136.78;;;-14.05;81.58
67517;BME280;54359;59.124;37.910;2023-01-08T03:22:06;101133.41;;;-14.05;80.84
67517;BME280;54359;59.124;37.910;2023-01-08T03:24:37;101148.81;;;-14.01;81.64
67517;BME280;54359;59.124;37.910;2023-01-08T03:27:06;101141.41;;;-14.01;80.26
67517;BME280;54359;59.124;37.910;2023-01-08T03:29:35;101143.28;;;-14.05;80.52
67517;BME280;54359;59.124;37.910;2023-01-08T03:32:06;101144.56;;;-14.02;80.93
67517;BME280;54359;59.124;37.910;2023-01-08T03:34:36;101143.28;;;-14.05;80.29
67517;BME280;54359;59.124;37.910;2023-01-08T03:37:04;101158.09;;;-14.05;81.35
67517;BME280;54359;59.124;37.910;2023-01-08T03:39:46;101146.22;;;-14.15;80.82
67517;BME280;54359;59.124;37.910;2023-01-08T03:42:16;101156.44;;;-14.12;81.12
67517;BME280;54359;59.124;37.910;2023-01-08T03:44:45;101162.41;;;-14.17;80.99
67517;BME280;54359;59.124;37.910;2023-01-08T03:47:12;101144.16;;;-14.25;80.13
67517;BME280;54359;59.124;37.910;2023-01-08T03:49:40;101157.28;;;-14.19;81.02
67517;BME280;54359;59.124;37.910;2023-01-08T03:52:20;101151.94;;;-14.22;79.76
67517;BME280;54359;59.124;37.910;2023-01-08T03:54:45;101150.38;;;-14.21;79.86
67517;BME280;54359;59.124;37.910;2023-01-08T03:57:11;101152.13;;;-14.20;80.68
67517;BME280;54359;59.124;37.910;2023-01-08T03:59:37;101144.72;;;-14.20;80.33
67517;BME280;54359;59.124;37.910;2023-01-08T04:02:04;101139.59;;;-14.22;80.36
67517;BME280;54359;59.124;37.910;2023-01-08T04:04:32;101150.63;;;-14.12;81.19
67517;BME280;54359;59.124;37.910;2023-01-08T04:06:59;101151.72;;;-14.10;79.94
67517;BME280;54359;59.124;37.910;2023-01-08T04:09:25;101159.19;;;-14.03;81.39
67517;BME280;54359;59.124;37.910;2023-01-08T04:11:50;101155.94;;;-13.96;81.49
67517;BME280;54359;59.124;37.910;2023-01-08T04:14:16;101153.00;;;-13.87;80.85
67517;BME280;54359;59.124;37.910;2023-01-08T04:16:43;101140.28;;;-13.90;80.61
67517;BME280;54359;59.124;37.910;2023-01-08T04:19:13;101132.34;;;-13.87;80.85
67517;BME280;54359;59.124;37.910;2023-01-08T04:21:42;101147.63;;;-13.77;80.44
67517;BME280;54359;59.124;37.910;2023-01-08T04:24:11;101140.94;;;-13.78;80.71
67517;BME280;54359;59.124;37.910;2023-01-08T04:26:38;101134.38;;;-13.78;80.90
67517;BME280;54359;59.124;37.910;2023-01-08T04:29:04;101136.66;;;-13.79;80.94
67517;BME280;54359;59.124;37.910;2023-01-08T04:31:30;101138.94;;;-13.81;81.01
67517;BME280;54359;59.124;37.910;2023-01-08T04:33:58;101144.78;;;-13.80;81.25
67517;BME280;54359;59.124;37.910;2023-01-08T04:36:24;101144.38;;;-13.83;80.54
67517;BME280;54359;59.124;37.910;2023-01-08T04:38:50;101147.38;;;-13.86;80.30
67517;BME280;54359;59.124;37.910;2023-01-08T04:41:15;101153.72;;;-13.88;81.26
67517;BME280;54359;59.124;37.910;2023-01-08T04:43:43;101151.75;;;-13.90;81.53
67517;BME280;54359;59.124;37.910;2023-01-08T04:46:08;101136.16;;;-13.96;81.21
67517;BME280;54359;59.124;37.910;2023-01-08T04:48:36;101153.00;;;-13.87;81.69
67517;BME280;54359;59.124;37.910;2023-01-08T04:51:03;101154.38;;;-13.89;80.41
67517;BME280;54359;59.124;37.910;2023-01-08T04:53:30;101168.03;;;-13.85;81.20
67517;BME280;54359;59.124;37.910;2023-01-08T04:56:03;101171.38;;;-13.85;81.04
67517;BME280;54359;59.124;37.910;2023-01-08T04:58:34;101169.97;;;-13.83;81.19
67517;BME280;54359;59.124;37.910;2023-01-08T05:01:15;101170.50;;;-13.85;80.91
67517;BME280;54359;59.124;37.910;2023-01-08T05:03:43;101164.41;;;-13.94;80.67
67517;BME280;54359;59.124;37.910;2023-01-08T05:06:10;101163.91;;;-13.92;80.78
67517;BME280;54359;59.124;37.910;2023-01-08T05:08:35;101170.44;;;-13.92;79.67
67517;BME280;54359;59.124;37.910;2023-01-08T05:11:03;101176.94;;;-13.93;80.14
67517;BME280;54359;59.124;37.910;2023-01-08T05:13:28;101174.97;;;-13.95;81.40
67517;BME280;54359;59.124;37.910;2023-01-08T05:16:00;101180.94;;;-14.01;80.71
67517;BME280;54359;59.124;37.910;2023-01-08T05:18:27;101181.94;;;-14.06;80.40
67517;BME280;54359;59.124;37.910;2023-01-08T05:21:00;101180.47;;;-14.11;81.53
67517;BME280;54359;59.124;37.910;2023-01-08T05:23:27;101185.88;;;-14.13;79.68
67517;BME280;54359;59.124;37.910;2023-01-08T05:25:58;101186.91;;;-14.19;80.05
67517;BME280;54359;59.124;37.910;2023-01-08T05:28:26;101188.09;;;-14.22;80.65
67517;BME280;54359;59.124;37.910;2023-01-08T05:30:52;101198.38;;;-14.19;80.77
67517;BME280;54359;59.124;37.910;2023-01-08T05:33:18;101198.69;;;-14.23;80.77
67517;BME280;54359;59.124;37.910;2023-01-08T05:35:44;101191.06;;;-14.25;80.61
67517;BME280;54359;59.124;37.910;2023-01-08T05:38:10;101189.97;;;-14.27;80.19
67517;BME280;54359;59.124;37.910;2023-01-08T05:40:36;101191.94;;;-14.24;80.63
67517;BME280;54359;59.124;37.910;2023-01-08T05:43:02;101198.78;;;-14.29;80.22
67517;BME280;54359;59.124;37.910;2023-01-08T05:45:31;101206.09;;;-14.23;80.25
67517;BME280;54359;59.124;37.910;2023-01-08T05:47:57;101203.41;;;-14.25;81.32
67517;BME280;54359;59.124;37.910;2023-01-08T05:50:23;101204.09;;;-14.26;79.97
67517;BME280;54359;59.124;37.910;2023-01-08T05:52:49;101207.84;;;-14.22;80.68
67517;BME280;54359;59.124;37.910;2023-01-08T05:55:16;101209.63;;;-14.21;80.58
67517;BME280;54359;59.124;37.910;2023-01-08T05:57:42;101208.34;;;-14.25;81.15
67517;BME280;54359;59.124;37.910;2023-01-08T06:00:09;101209.53;;;-14.28;79.80
67517;BME280;54359;59.124;37.910;2023-01-08T06:02:38;101204.53;;;-14.35;81.43
67517;BME280;54359;59.124;37.910;2023-01-08T06:05:04;101220.69;;;-14.25;79.80
67517;BME280;54359;59.124;37.910;2023-01-08T06:07:30;101224.94;;;-14.24;80.73
67517;BME280;54359;59.124;37.910;2023-01-08T06:09:56;101225.13;;;-14.22;81.03
67517;BME280;54359;59.124;37.910;2023-01-08T06:12:22;101226.41;;;-14.19;80.34
67517;BME280;54359;59.124;37.910;2023-01-08T06:14:48;101215.66;;;-14.19;80.51
67517;BME280;54359;59.124;37.910;2023-01-08T06:17:14;101224.63;;;-14.20;80.29
67517;BME280;54359;59.124;37.910;2023-01-08T06:19:40;101226.41;;;-14.19;80.82
67517;BME280;54359;59.124;37.910;2023-01-08T06:22:06;101212.00;;;-14.28;80.08
67517;BME280;54359;59.124;37.910;2023-01-08T06:24:32;101216.63;;;-14.24;81.05
67517;BME280;54359;59.124;37.910;2023-01-08T06:26:59;101213.59;;;-14.29;79.75
67517;BME280;54359;59.124;37.910;2023-01-08T06:29:27;101224.66;;;-14.32;80.36
67517;BME280;54359;59.124;37.910;2023-01-08T06:31:58;101221.03;;;-14.42;81.00
67517;BME280;54359;59.124;37.910;2023-01-08T06:34:24;101225.19;;;-14.48;79.24
67517;BME280;54359;59.124;37.910;2023-01-08T06:36:50;101229.50;;;-14.52;80.61
67517;BME280;54359;59.124;37.910;2023-01-08T06:39:16;101231.91;;;-14.60;80.08
67517;BME280;54359;59.124;37.910;2023-01-08T06:41:42;101243.66;;;-14.64;79.81
67517;BME280;54359;59.124;37.910;2023-01-08T06:44:09;101239.03;;;-14.68;79.43
67517;BME280;54359;59.124;37.910;2023-01-08T06:46:35;101246.91;;;-14.71;80.43
67517;BME280;54359;59.124;37.910;2023-01-08T06:49:06;101250.06;;;-14.72;80.28
67517;BME280;54359;59.124;37.910;2023-01-08T06:51:32;101240.69;;;-14.74;80.07
67517;BME280;54359;59.124;37.910;2023-01-08T06:54:00;101232.00;;;-14.78;80.80
67517;BME280;54359;59.124;37.910;2023-01-08T06:56:26;101245.44;;;-14.76;80.66
67517;BME280;54359;59.124;37.910;2023-01-08T06:58:55;101248.97;;;-14.74;80.93
67517;BME280;54359;59.124;37.910;2023-01-08T07:01:21;101242.53;;;-14.79;81.22
67517;BME280;54359;59.124;37.910;2023-01-08T07:03:47;101253.91;;;-14.74;80.04
67517;BME280;54359;59.124;37.910;2023-01-08T07:06:15;101258.66;;;-14.75;80.94
67517;BME280;54359;59.124;37.910;2023-01-08T07:08:42;101247.38;;;-14.86;80.93
67517;BME280;54359;59.124;37.910;2023-01-08T07:11:09;101265.84;;;-14.77;79.99
67517;BME280;54359;59.124;37.910;2023-01-08T07:13:35;101256.09;;;-14.83;80.37
67517;BME280;54359;59.124;37.910;2023-01-08T07:16:10;101258.44;;;-14.90;79.99
67517;BME280;54359;59.124;37.910;2023-01-08T07:18:36;101269.38;;;-14.88;80.08
67517;BME280;54359;59.124;37.910;2023-01-08T07:21:03;101267.63;;;-14.89;79.32
67517;BME280;54359;59.124;37.910;2023-01-08T07:23:31;101258.94;;;-14.92;79.95
67517;BME280;54359;59.124;37.910;2023-01-08T07:26:01;101265.53;;;-14.86;80.66
67517;BME280;54359;59.124;37.910;2023-01-08T07:28:28;101267.34;;;-14.85;79.95
67517;BME280;54359;59.124;37.910;2023-01-08T07:30:54;101279.09;;;-14.76;79.62
67517;BME280;54359;59.124;37.910;2023-01-08T07:33:22;101273.25;;;-14.77;80.42
67517;BME280;54359;59.124;37.910;2023-01-08T07:35:54;101286.38;;;-14.71;79.84
67517;BME280;54359;59.124;37.910;2023-01-08T07:38:22;101289.56;;;-14.72;79.85
67517;BME280;54359;59.124;37.910;2023-01-08T07:40:48;101282.22;;;-14.77;80.36
67517;BME280;54359;59.124;37.910;2023-01-08T07:43:14;101290.72;;;-14.75;80.51
67517;BME280;54359;59.124;37.910;2023-01-08T07:45:41;101292.09;;;-14.77;79.66
67517;BME280;54359;59.124;37.910;2023-01-08T07:48:07;101289.72;;;-14.83;79.62
67517;BME280;54359;59.124;37.910;2023-01-08T07:50:41;101297.53;;;-14.80;79.82
67517;BME280;54359;59.124;37.910;2023-01-08T07:53:08;101300.00;;;-14.80;80.74
67517;BME280;54359;59.124;37.910;2023-01-08T07:55:36;101290.63;;;-14.83;80.09
67517;BME280;54359;59.124;37.910;2023-01-08T07:58:12;101305.13;;;-14.78;80.21
67517;BME280;54359;59.124;37.910;2023-01-08T08:00:38;101301.59;;;-14.81;79.67
67517;BME280;54359;59.124;37.910;2023-01-08T08:03:06;101303.63;;;-14.84;80.56
67517;BME280;54359;59.124;37.910;2023-01-08T08:05:33;101302.53;;;-14.86;79.53
67517;BME280;54359;59.124;37.910;2023-01-08T08:08:00;101299.78;;;-14.82;80.91
67517;BME280;54359;59.124;37.910;2023-01-08T08:10:26;101307.59;;;-14.78;80.14
67517;BME280;54359;59.124;37.910;2023-01-08T08:12:52;101311.47;;;-14.68;80.40
67517;BME280;54359;59.124;37.910;2023-01-08T08:15:18;101291.94;;;-14.66;80.60
67517;BME280;54359;59.124;37.910;2023-01-08T08:17:46;101301.78;;;-14.53;79.44
67517;BME280;54359;59.124;37.910;2023-01-08T08:20:15;101301.28;;;-14.51;80.00
67517;BME280;54359;59.124;37.910;2023-01-08T08:22:42;101304.34;;;-14.46;80.82
67517;BME280;54359;59.124;37.910;2023-01-08T08:25:08;101306.63;;;-14.48;79.37
67517;BME280;54359;59.124;37.910;2023-01-08T08:27:34;101295.59;;;-14.57;80.84
67517;BME280;54359;59.124;37.910;2023-01-08T08:30:00;101300.31;;;-14.59;79.09
67517;BME280;54359;59.124;37.910;2023-01-08T08:32:28;101304.94;;;-14.67;79.33
67517;BME280;54359;59.124;37.910;2023-01-08T08:34:54;101291.53;;;-14.69;80.37
67517;BME280;54359;59.124;37.910;2023-01-08T08:37:21;101293.69;;;-14.65;80.78
67517;BME280;54359;59.124;37.910;2023-01-08T08:39:46;101307.09;;;-14.50;81.08
67517;BME280;54359;59.124;37.910;2023-01-08T08:42:15;101297.72;;;-14.53;80.49
67517;BME280;54359;59.124;37.910;2023-01-08T08:44:41;101307.00;;;-14.45;80.27
67517;BME280;54359;59.124;37.910;2023-01-08T08:47:07;101302.06;;;-14.45;80.10
67517;BME280;54359;59.124;37.910;2023-01-08T08:49:34;101313.16;;;-14.35;80.49
67517;BME280;54359;59.124;37.910;2023-01-08T08:52:05;101319.19;;;-14.33;80.36
67517;BME280;54359;59.124;37.910;2023-01-08T08:54:31;101309.59;;;-14.38;80.28
67517;BME280;54359;59.124;37.910;2023-01-08T08:56:59;101320.28;;;-14.31;79.19
67517;BME280;54359;59.124;37.910;2023-01-08T08:59:25;101307.59;;;-14.40;79.68
67517;BME280;54359;59.124;37.910;2023-01-08T09:01:52;101327.19;;;-14.42;79.91
67517;BME280;54359;59.124;37.910;2023-01-08T09:04:18;101326.38;;;-14.48;80.34
67517;BME280;54359;59.124;37.910;2023-01-08T09:06:43;101323.91;;;-14.48;81.05
67517;BME280;54359;59.124;37.910;2023-01-08T09:09:09;101322.03;;;-14.43;80.41
67517;BME280;54359;59.124;37.910;2023-01-08T09:11:35;101318.78;;;-14.36;80.13
67517;BME280;54359;59.124;37.910;2023-01-08T09:14:01;101319.19;;;-14.33;80.52
67517;BME280;54359;59.124;37.910;2023-01-08T09:16:29;101330.03;;;-14.26;81.00
67517;BME280;54359;59.124;37.910;2023-01-08T09:19:00;101333.59;;;-14.24;79.57
67517;BME280;54359;59.124;37.910;2023-01-08T09:21:27;101330.66;;;-14.21;80.69
67517;BME280;54359;59.124;37.910;2023-01-08T09:23:53;101317.22;;;-14.23;80.61
67517;BME280;54359;59.124;37.910;2023-01-08T09:26:20;101309.91;;;-14.29;79.72
67517;BME280;54359;59.124;37.910;2023-01-08T09:28:46;101318.28;;;-14.21;80.72
67517;BME280;54359;59.124;37.910;2023-01-08T09:31:12;101320.25;;;-14.19;80.45
67517;BME280;54359;59.124;37.910;2023-01-08T09:33:42;101326.09;;;-14.18;79.39
67517;BME280;54359;59.124;37.910;2023-01-08T09:36:10;101332.41;;;-14.20;80.86
67517;BME280;54359;59.124;37.910;2023-01-08T09:38:36;101318.28;;;-14.34;80.38
67517;BME280;54359;59.124;37.910;2023-01-08T09:41:10;101323.91;;;-14.35;79.42
67517;BME280;54359;59.124;37.910;2023-01-08T09:43:47;101326.38;;;-14.35;79.83
67517;BME280;54359;59.124;37.910;2023-01-08T09:46:18;101313.84;;;-14.36;79.85
67517;BME280;54359;59.124;37.910;2023-01-08T09:48:50;101324.13;;;-14.33;79.18
67517;BME280;54359;59.124;37.910;2023-01-08T09:51:18;101326.97;;;-14.30;80.15
67517;BME280;54359;59.124;37.910;2023-01-08T09:53:54;101339.03;;;-14.26;79.46
67517;BME280;54359;59.124;37.910;2023-01-08T09:56:22;101337.44;;;-14.26;80.35
67517;BME280;54359;59.124;37.910;2023-01-08T09:58:54;101351.28;;;-14.21;79.94
67517;BME280;54359;59.124;37.910;2023-01-08T10:01:23;101341.91;;;-14.23;79.36
67517;BME280;54359;59.124;37.910;2023-01-08T10:04:09;101345.56;;;-14.27;79.56
67517;BME280;54359;59.124;37.910;2023-01-08T10:06:39;101340.19;;;-14.30;80.51
67517;BME280;54359;59.124;37.910;2023-01-08T10:09:13;101310.00;;;-14.60;79.90
67517;BME280;54359;59.124;37.910;2023-01-08T10:11:47;101346.31;;;-14.46;80.25
67517;BME280;54359;59.124;37.910;2023-01-08T10:14:27;101352.72;;;-14.54;80.41
67517;BME280;54359;59.124;37.910;2023-01-08T10:17:28;101345.22;;;-14.61;80.62
67517;BME280;54359;59.124;37.910;2023-01-08T10:19:57;101359.16;;;-14.62;80.37
67517;BME280;54359;59.124;37.910;2023-01-08T10:22:26;101358.16;;;-14.69;81.07
67517;BME280;54359;59.124;37.910;2023-01-08T10:25:06;101361.03;;;-14.66;79.89
67517;BME280;54359;59.124;37.910;2023-01-08T10:27:43;101354.59;;;-14.71;81.17
67517;BME280;54359;59.124;37.910;2023-01-08T10:30:18;101359.25;;;-14.67;80.58
67517;BME280;54359;59.124;37.910;2023-01-08T10:32:47;101362.47;;;-14.74;80.97
67517;BME280;54359;59.124;37.910;2023-01-08T10:35:21;101368.91;;;-14.69;80.24
67517;BME280;54359;59.124;37.910;2023-01-08T10:37:47;101358.34;;;-14.68;80.96
67517;BME280;54359;59.124;37.910;2023-01-08T10:43:31;101364.09;;;-14.49;80.76
67517;BME280;54359;59.124;37.910;2023-01-08T10:46:07;101370.53;;;-14.31;80.29
67517;BME280;54359;59.124;37.910;2023-01-08T10:48:50;101364.31;;;-14.22;79.46
67517;BME280;54359;59.124;37.910;2023-01-08T10:51:28;101362.25;;;-14.19;81.08
67517;BME280;54359;59.124;37.910;2023-01-08T10:54:19;101376.56;;;-14.03;81.15
67517;BME280;54359;59.124;37.910;2023-01-08T10:56:50;101347.13;;;-14.14;81.00
67517;BME280;54359;59.124;37.910;2023-01-08T10:59:22;101367.66;;;-13.83;81.13
67517;BME280;54359;59.124;37.910;2023-01-08T11:01:53;101335.88;;;-13.54;81.50
67517;BME280;54359;59.124;37.910;2023-01-08T11:04:28;101364.13;;;-12.66;82.16
67517;BME280;54359;59.124;37.910;2023-01-08T11:07:05;101360.72;;;-12.00;82.26
67517;BME280;54359;59.124;37.910;2023-01-08T11:09:48;101374.97;;;-11.36;81.26
67517;BME280;54359;59.124;37.910;2023-01-08T11:12:39;101365.50;;;-10.89;79.53
67517;BME280;54359;59.124;37.910;2023-01-08T11:15:41;101360.03;;;-10.51;79.23
67517;BME280;54359;59.124;37.910;2023-01-08T11:18:48;101330.50;;;-10.26;78.82
67517;BME280;54359;59.124;37.910;2023-01-08T11:21:33;101367.16;;;-9.74;78.84
67517;BME280;54359;59.124;37.910;2023-01-08T11:24:56;101366.69;;;-9.41;78.37
67517;BME280;54359;59.124;37.910;2023-01-08T11:27:32;101353.28;;;-9.27;79.15
67517;BME280;54359;59.124;37.910;2023-01-08T11:30:18;101347.09;;;-9.07;79.66
67517;BME280;54359;59.124;37.910;2023-01-08T11:33:00;101342.13;;;-9.07;79.07
67517;BME280;54359;59.124;37.910;2023-01-08T11:35:43;101353.44;;;-8.95;79.40
67517;BME280;54359;59.124;37.910;2023-01-08T11:38:21;101325.03;;;-9.04;79.09
67517;BME280;54359;59.124;37.910;2023-01-08T11:44:45;101362.34;;;-8.97;79.26
67517;BME280;54359;59.124;37.910;2023-01-08T11:50:39;101361.53;;;-8.82;79.52
67517;BME280;54359;59.124;37.910;2023-01-08T11:53:35;101369.03;;;-8.82;79.43
67517;BME280;54359;59.124;37.910;2023-01-08T11:56:19;101361.94;;;-8.86;79.55
67517;BME280;54359;59.124;37.910;2023-01-08T12:02:11;101361.72;;;-9.11;78.54
67517;BME280;54359;59.124;37.910;2023-01-08T12:05:08;101363.00;;;-9.14;79.96
67517;BME280;54359;59.124;37.910;2023-01-08T12:08:01;101360.81;;;-9.11;79.66
67517;BME280;54359;59.124;37.910;2023-01-08T12:11:04;101368.94;;;-8.98;80.16
67517;BME280;54359;59.124;37.910;2023-01-08T12:17:11;101369.31;;;-8.72;79.32
67517;BME280;54359;59.124;37.910;2023-01-08T12:31:02;101379.06;;;-9.26;78.60
67517;BME280;54359;59.124;37.910;2023-01-08T12:33:47;101376.19;;;-9.67;77.68
67517;BME280;54359;59.124;37.910;2023-01-08T12:36:22;101374.53;;;-10.18;76.97
67517;BME280;54359;59.124;37.910;2023-01-08T12:39:02;101366.53;;;-11.02;77.32
67517;BME280;54359;59.124;37.910;2023-01-08T12:41:32;101379.75;;;-11.79;77.58
67517;BME280;54359;59.124;37.910;2023-01-08T12:44:03;101378.03;;;-12.54;78.05
67517;BME280;54359;59.124;37.910;2023-01-08T12:46:35;101400.00;;;-13.03;77.33
67517;BME280;54359;59.124;37.910;2023-01-08T12:49:04;101379.59;;;-13.60;77.91
67517;BME280;54359;59.124;37.910;2023-01-08T12:54:57;101414.31;;;-14.17;78.93
67517;BME280;54359;59.124;37.910;2023-01-08T13:03:24;101414.41;;;-15.16;78.68
67517;BME280;54359;59.124;37.910;2023-01-08T13:06:20;101426.09;;;-15.40;78.61
67517;BME280;54359;59.124;37.910;2023-01-08T13:09:05;101418.34;;;-15.67;78.69
67517;BME280;54359;59.124;37.910;2023-01-08T13:11:34;101415.34;;;-15.77;78.73
67517;BME280;54359;59.124;37.910;2023-01-08T13:14:07;101426.94;;;-15.76;78.80
67517;BME280;54359;59.124;37.910;2023-01-08T13:16:39;101431.47;;;-15.79;78.81
67517;BME280;54359;59.124;37.910;2023-01-08T13:19:24;101432.41;;;-15.84;78.63
67517;BME280;54359;59.124;37.910;2023-01-08T13:21:57;101415.72;;;-15.98;78.59
67517;BME280;54359;59.124;37.910;2023-01-08T13:24:33;101431.81;;;-15.94;78.29
67517;BME280;54359;59.124;37.910;2023-01-08T13:27:27;101424.53;;;-16.06;78.06
67517;BME280;54359;59.124;37.910;2023-01-08T13:29:55;101422.41;;;-16.21;78.40
67517;BME280;54359;59.124;37.910;2023-01-08T13:32:44;101450.59;;;-16.19;77.88
67517;BME280;54359;59.124;37.910;2023-01-08T13:37:42;101446.47;;;-16.37;77.92
67517;BME280;54359;59.124;37.910;2023-01-08T13:43:30;101434.75;;;-16.56;78.02
67517;BME280;54359;59.124;37.910;2023-01-08T13:46:06;101436.59;;;-16.67;77.83
67517;BME280;54359;59.124;37.910;2023-01-08T13:48:39;101437.97;;;-16.69;78.09
67517;BME280;54359;59.124;37.910;2023-01-08T13:51:44;101447.84;;;-16.80;78.22
67517;BME280;54359;59.124;37.910;2023-01-08T13:56:41;101444.63;;;-16.97;78.04
67517;BME280;54359;59.124;37.910;2023-01-08T13:59:35;101465.81;;;-16.92;78.02